sensor_id;sensor_type;location;lat;lon;timestamp;pressure;altitude;pressure_sealevel;temperature;humidity
66668;BME280;57205;51.438;-2.006;2023-08-31T00:00:31;100359.19;;;12.05;100.00
66668;BME280;57205;51.438;-2.006;2023-08-31T00:02:59;100361.34;;;12.03;100.00
66668;BME280;57205;51.438;-2.006;2023-08-31T00:05:24;100363.53;;;11.96;100.00
66668;BME280;57205;51.438;-2.006;2023-08-31T00:07:53;100368.38;;;11.89;100.00
66668;BME280;57205;51.438;-2.006;2023-08-31T00:10:18;100358.28;;;11.81;100.00
66668;BME280;57205;51.438;-2.006;2023-08-31T00:12:44;100359.66;;;11.73;100.00
66668;BME280;57205;51.438;-2.006;2023-08-31T00:15:09;100358.59;;;11.69;100.00
66668;BME280;57205;51.438;-2.006;2023-08-31T00:17:35;100359.41;;;11.70;100.00
66668;BME280;57205;51.438;-2.006;2023-08-31T00:20:01;100350.84;;;11.68;100.00
66668;BME280;57205;51.438;-2.006;2023-08-31T00:22:30;100350.03;;;11.67;100.00
66668;BME280;57205;51.438;-2.006;2023-08-31T00:24:55;100351.66;;;11.68;100.00
66668;BME280;57205;51.438;-2.006;2023-08-31T00:27:21;100348.44;;;11.66;100.00
66668;BME280;57205;51.438;-2.006;2023-08-31T00:29:46;100350.56;;;11.64;100.00
66668;BME280;57205;51.438;-2.006;2023-08-31T00:32:15;100351.13;;;11.61;100.00
66668;BME280;57205;51.438;-2.006;2023-08-31T00:34:40;100347.66;;;11.61;100.00
66668;BME280;57205;51.438;-2.006;2023-08-31T00:37:06;100344.72;;;11.57;100.00
66668;BME280;57205;51.438;-2.006;2023-08-31T00:39:31;100333.22;;;11.52;100.00
66668;BME280;57205;51.438;-2.006;2023-08-31T00:41:59;100339.66;;;11.51;100.00
66668;BME280;57205;51.438;-2.006;2023-08-31T00:44:24;100341.81;;;11.49;100.00
66668;BME280;57205;51.438;-2.006;2023-08-31T00:46:50;100343.16;;;11.46;100.00
66668;BME280;57205;51.438;-2.006;2023-08-31T00:49:15;100343.97;;;11.47;100.00
66668;BME280;57205;51.438;-2.006;2023-08-31T00:51:42;100335.66;;;11.48;100.00
66668;BME280;57205;51.438;-2.006;2023-08-31T00:54:13;100335.66;;;11.48;100.00
66668;BME280;57205;51.438;-2.006;2023-08-31T00:56:39;100340.75;;;11.50;100.00
66668;BME280;57205;51.438;-2.006;2023-08-31T00:59:04;100333.81;;;11.44;100.00
66668;BME280;57205;51.438;-2.006;2023-08-31T01:01:50;100323.63;;;11.41;100.00
66668;BME280;57205;51.438;-2.006;2023-08-31T01:04:34;100334.09;;;11.37;100.00
66668;BME280;57205;51.438;-2.006;2023-08-31T01:12:20;100325.53;;;11.35;100.00
66668;BME280;57205;51.438;-2.006;2023-08-31T01:15:04;100323.94;;;11.34;100.00
66668;BME280;57205;51.438;-2.006;2023-08-31T01:17:38;100322.06;;;11.35;100.00
66668;BME280;57205;51.438;-2.006;2023-08-31T01:20:08;100324.75;;;11.35;100.00
66668;BME280;57205;51.438;-2.006;2023-08-31T01:22:40;100334.66;;;11.34;100.00
66668;BME280;57205;51.438;-2.006;2023-08-31T01:25:08;100343.50;;;11.30;100.00
66668;BME280;57205;51.438;-2.006;2023-08-31T01:27:37;100339.78;;;11.31;100.00
66668;BME280;57205;51.438;-2.006;2023-08-31T01:30:04;100336.56;;;11.29;100.00
66668;BME280;57205;51.438;-2.006;2023-08-31T01:32:30;100337.91;;;11.31;100.00
66668;BME280;57205;51.438;-2.006;2023-08-31T01:34:57;100344.56;;;11.34;100.00
66668;BME280;57205;51.438;-2.006;2023-08-31T01:37:49;100335.47;;;11.35;100.00
66668;BME280;57205;51.438;-2.006;2023-08-31T01:42:54;100326.59;;;11.39;100.00
66668;BME280;57205;51.438;-2.006;2023-08-31T01:45:22;100329.56;;;11.38;100.00
66668;BME280;57205;51.438;-2.006;2023-08-31T01:47:48;100336.78;;;11.37;100.00
66668;BME280;57205;51.438;-2.006;2023-08-31T01:50:14;100322.84;;;11.40;100.00
66668;BME280;57205;51.438;-2.006;2023-08-31T01:52:39;100324.69;;;11.45;100.00
66668;BME280;57205;51.438;-2.006;2023-08-31T01:55:08;100315.88;;;11.44;100.00
66668;BME280;57205;51.438;-2.006;2023-08-31T01:57:34;100311.56;;;11.43;100.00
66668;BME280;57205;51.438;-2.006;2023-08-31T01:59:59;100310.75;;;11.43;100.00
66668;BME280;57205;51.438;-2.006;2023-08-31T02:02:25;100306.22;;;11.43;100.00
66668;BME280;57205;51.438;-2.006;2023-08-31T02:04:50;100308.09;;;11.43;100.00
66668;BME280;57205;51.438;-2.006;2023-08-31T02:07:17;100297.38;;;11.43;100.00
66668;BME280;57205;51.438;-2.006;2023-08-31T02:09:42;100303.81;;;11.42;100.00
66668;BME280;57205;51.438;-2.006;2023-08-31T02:12:08;100303.81;;;11.42;100.00
66668;BME280;57205;51.438;-2.006;2023-08-31T02:14:36;100304.63;;;11.42;100.00
66668;BME280;57205;51.438;-2.006;2023-08-31T02:17:02;100294.69;;;11.43;100.00
66668;BME280;57205;51.438;-2.006;2023-08-31T02:19:27;100285.34;;;11.40;100.00
66668;BME280;57205;51.438;-2.006;2023-08-31T02:21:53;100292.06;;;11.38;100.00
66668;BME280;57205;51.438;-2.006;2023-08-31T02:24:18;100289.41;;;11.33;100.00
66668;BME280;57205;51.438;-2.006;2023-08-31T02:26:44;100290.75;;;11.30;100.00
66668;BME280;57205;51.438;-2.006;2023-08-31T02:29:09;100288.34;;;11.29;100.00
66668;BME280;57205;51.438;-2.006;2023-08-31T02:31:34;100291.03;;;11.29;100.00
66668;BME280;57205;51.438;-2.006;2023-08-31T02:34:00;100284.06;;;11.28;100.00
66668;BME280;57205;51.438;-2.006;2023-08-31T02:36:25;100287.25;;;11.30;100.00
66668;BME280;57205;51.438;-2.006;2023-08-31T02:38:51;100291.03;;;11.29;100.00
66668;BME280;57205;51.438;-2.006;2023-08-31T02:41:18;100292.66;;;11.25;100.00
66668;BME280;57205;51.438;-2.006;2023-08-31T02:43:43;100287.81;;;11.27;100.00
66668;BME280;57205;51.438;-2.006;2023-08-31T02:46:09;100293.47;;;11.25;100.00
66668;BME280;57205;51.438;-2.006;2023-08-31T02:48:34;100291.06;;;11.24;100.00
66668;BME280;57205;51.438;-2.006;2023-08-31T02:51:00;100278.47;;;11.24;100.00
66668;BME280;57205;51.438;-2.006;2023-08-31T02:53:27;100277.16;;;11.17;100.00
66668;BME280;57205;51.438;-2.006;2023-08-31T02:55:52;100272.88;;;11.16;100.00
66668;BME280;57205;51.438;-2.006;2023-08-31T02:58:17;100273.41;;;11.18;100.00
66668;BME280;57205;51.438;-2.006;2023-08-31T03:00:44;100268.34;;;11.16;100.00
66668;BME280;57205;51.438;-2.006;2023-08-31T03:03:13;100269.69;;;11.14;100.00
66668;BME280;57205;51.438;-2.006;2023-08-31T03:05:38;100264.34;;;11.14;100.00
66668;BME280;57205;51.438;-2.006;2023-08-31T03:08:04;100270.22;;;11.16;100.00
66668;BME280;57205;51.438;-2.006;2023-08-31T03:10:30;100265.13;;;11.14;100.00
66668;BME280;57205;51.438;-2.006;2023-08-31T03:12:55;100275.84;;;11.14;100.00
66668;BME280;57205;51.438;-2.006;2023-08-31T03:15:21;100265.13;;;11.14;100.00
66668;BME280;57205;51.438;-2.006;2023-08-31T03:17:46;100272.13;;;11.10;100.00
66668;BME280;57205;51.438;-2.006;2023-08-31T03:20:11;100277.47;;;11.10;100.00
66668;BME280;57205;51.438;-2.006;2023-08-31T03:22:37;100281.22;;;11.09;100.00
66668;BME280;57205;51.438;-2.006;2023-08-31T03:25:03;100284.69;;;11.10;100.00
66668;BME280;57205;51.438;-2.006;2023-08-31T03:27:28;100278.53;;;11.09;100.00
66668;BME280;57205;51.438;-2.006;2023-08-31T03:29:53;100281.75;;;11.11;100.00
66668;BME280;57205;51.438;-2.006;2023-08-31T03:32:19;100276.66;;;11.15;100.00
66668;BME280;57205;51.438;-2.006;2023-08-31T03:34:44;100278.25;;;11.16;100.00
66668;BME280;57205;51.438;-2.006;2023-08-31T03:37:12;100278.78;;;11.18;100.00
66668;BME280;57205;51.438;-2.006;2023-08-31T03:39:37;100273.13;;;11.19;100.00
66668;BME280;57205;51.438;-2.006;2023-08-31T03:42:03;100279.31;;;11.20;100.00
66668;BME280;57205;51.438;-2.006;2023-08-31T03:44:29;100276.06;;;11.23;100.00
66668;BME280;57205;51.438;-2.006;2023-08-31T03:46:54;100283.28;;;11.22;100.00
66668;BME280;57205;51.438;-2.006;2023-08-31T03:49:20;100285.19;;;11.22;100.00
66668;BME280;57205;51.438;-2.006;2023-08-31T03:51:45;100276.06;;;11.23;100.00
66668;BME280;57205;51.438;-2.006;2023-08-31T03:54:10;100278.75;;;11.23;100.00
66668;BME280;57205;51.438;-2.006;2023-08-31T03:56:38;100276.88;;;11.23;100.00
66668;BME280;57205;51.438;-2.006;2023-08-31T03:59:05;100278.75;;;11.23;100.00
66668;BME280;57205;51.438;-2.006;2023-08-31T04:01:31;100273.09;;;11.24;100.00
66668;BME280;57205;51.438;-2.006;2023-08-31T04:03:56;100278.19;;;11.26;100.00
66668;BME280;57205;51.438;-2.006;2023-08-31T04:06:22;100273.91;;;11.25;100.00
66668;BME280;57205;51.438;-2.006;2023-08-31T04:08:47;100277.63;;;11.29;100.00
66668;BME280;57205;51.438;-2.006;2023-08-31T04:11:12;100280.03;;;11.30;100.00
66668;BME280;57205;51.438;-2.006;2023-08-31T04:13:38;100282.72;;;11.30;100.00
66668;BME280;57205;51.438;-2.006;2023-08-31T04:16:03;100273.34;;;11.28;100.00
66668;BME280;57205;51.438;-2.006;2023-08-31T04:18:29;100280.84;;;11.31;100.00
66668;BME280;57205;51.438;-2.006;2023-08-31T04:20:54;100280.03;;;11.30;100.00
66668;BME280;57205;51.438;-2.006;2023-08-31T04:23:20;100282.44;;;11.32;100.00
66668;BME280;57205;51.438;-2.006;2023-08-31T04:25:46;100279.22;;;11.30;100.00
66668;BME280;57205;51.438;-2.006;2023-08-31T04:28:13;100281.38;;;11.33;100.00
66668;BME280;57205;51.438;-2.006;2023-08-31T04:30:41;100285.63;;;11.34;100.00
66668;BME280;57205;51.438;-2.006;2023-08-31T04:33:07;100285.88;;;11.37;100.00
66668;BME280;57205;51.438;-2.006;2023-08-31T04:35:33;100289.38;;;11.38;100.00
66668;BME280;57205;51.438;-2.006;2023-08-31T04:37:59;100284.00;;;11.38;100.00
66668;BME280;57205;51.438;-2.006;2023-08-31T04:40:24;100291.53;;;11.36;100.00
66668;BME280;57205;51.438;-2.006;2023-08-31T04:42:50;100280.00;;;11.35;100.00
66668;BME280;57205;51.438;-2.006;2023-08-31T04:45:16;100288.56;;;11.37;100.00
66668;BME280;57205;51.438;-2.006;2023-08-31T04:47:42;100290.19;;;11.38;100.00
66668;BME280;57205;51.438;-2.006;2023-08-31T04:50:08;100298.47;;;11.42;100.00
66668;BME280;57205;51.438;-2.006;2023-08-31T04:52:33;100297.13;;;11.39;100.00
66668;BME280;57205;51.438;-2.006;2023-08-31T04:55:01;100295.50;;;11.43;100.00
66668;BME280;57205;51.438;-2.006;2023-08-31T04:57:26;100294.69;;;11.43;100.00
66668;BME280;57205;51.438;-2.006;2023-08-31T04:59:52;100290.13;;;11.43;100.00
66668;BME280;57205;51.438;-2.006;2023-08-31T05:02:17;100288.28;;;11.44;100.00
66668;BME280;57205;51.438;-2.006;2023-08-31T05:04:44;100286.41;;;11.44;100.00
66668;BME280;57205;51.438;-2.006;2023-08-31T05:07:09;100279.66;;;11.47;100.00
66668;BME280;57205;51.438;-2.006;2023-08-31T05:09:35;100272.72;;;11.46;100.00
66668;BME280;57205;51.438;-2.006;2023-08-31T05:12:01;100279.66;;;11.47;100.00
66668;BME280;57205;51.438;-2.006;2023-08-31T05:14:28;100281.28;;;11.48;100.00
66668;BME280;57205;51.438;-2.006;2023-08-31T05:16:54;100270.00;;;11.51;100.00
66668;BME280;57205;51.438;-2.006;2023-08-31T05:19:19;100278.06;;;11.46;100.00
66668;BME280;57205;51.438;-2.006;2023-08-31T05:21:44;100272.44;;;11.47;100.00
66668;BME280;57205;51.438;-2.006;2023-08-31T05:24:10;100286.13;;;11.46;100.00
66668;BME280;57205;51.438;-2.006;2023-08-31T05:26:35;100279.66;;;11.47;100.00
66668;BME280;57205;51.438;-2.006;2023-08-31T05:29:01;100275.63;;;11.49;100.00
66668;BME280;57205;51.438;-2.006;2023-08-31T05:31:29;100266.50;;;11.50;100.00
66668;BME280;57205;51.438;-2.006;2023-08-31T05:33:55;100275.88;;;11.53;100.00
66668;BME280;57205;51.438;-2.006;2023-08-31T05:36:20;100278.00;;;11.56;100.00
66668;BME280;57205;51.438;-2.006;2023-08-31T05:38:46;100280.13;;;11.59;100.00
66668;BME280;57205;51.438;-2.006;2023-08-31T05:41:11;100273.16;;;11.63;100.00
66668;BME280;57205;51.438;-2.006;2023-08-31T05:43:37;100266.69;;;11.64;100.00
66668;BME280;57205;51.438;-2.006;2023-08-31T05:46:05;100268.84;;;11.67;100.00
66668;BME280;57205;51.438;-2.006;2023-08-31T05:48:31;100266.69;;;11.69;100.00
66668;BME280;57205;51.438;-2.006;2023-08-31T05:50:56;100271.50;;;11.72;100.00
66668;BME280;57205;51.438;-2.006;2023-08-31T05:53:22;100266.59;;;11.79;100.00
66668;BME280;57205;51.438;-2.006;2023-08-31T05:55:48;100270.03;;;11.85;100.00
66668;BME280;57205;51.438;-2.006;2023-08-31T05:58:14;100273.78;;;11.89;100.00
66668;BME280;57205;51.438;-2.006;2023-08-31T06:00:39;100272.69;;;11.90;100.00
66668;BME280;57205;51.438;-2.006;2023-08-31T06:03:04;100273.50;;;11.90;100.00
66668;BME280;57205;51.438;-2.006;2023-08-31T06:05:34;100272.38;;;11.91;100.00
66668;BME280;57205;51.438;-2.006;2023-08-31T06:08:00;100277.72;;;11.96;100.00
66668;BME280;57205;51.438;-2.006;2023-08-31T06:10:26;100284.13;;;12.00;100.00
66668;BME280;57205;51.438;-2.006;2023-08-31T06:12:51;100283.00;;;12.06;100.00
66668;BME280;57205;51.438;-2.006;2023-08-31T06:15:17;100273.06;;;12.07;100.00
66668;BME280;57205;51.438;-2.006;2023-08-31T06:17:43;100289.41;;;12.10;100.00
66668;BME280;57205;51.438;-2.006;2023-08-31T06:20:09;100283.19;;;12.15;100.00
66668;BME280;57205;51.438;-2.006;2023-08-31T06:22:35;100285.81;;;12.20;100.00
66668;BME280;57205;51.438;-2.006;2023-08-31T06:25:00;100288.44;;;12.25;100.00
66668;BME280;57205;51.438;-2.006;2023-08-31T06:27:26;100288.16;;;12.26;100.00
66668;BME280;57205;51.438;-2.006;2023-08-31T06:29:51;100287.91;;;12.28;100.00
66668;BME280;57205;51.438;-2.006;2023-08-31T06:32:17;100290.31;;;12.29;100.00
66668;BME280;57205;51.438;-2.006;2023-08-31T06:34:44;100285.69;;;12.35;100.00
66668;BME280;57205;51.438;-2.006;2023-08-31T06:37:09;100292.88;;;12.39;100.00
66668;BME280;57205;51.438;-2.006;2023-08-31T06:39:35;100294.78;;;12.39;100.00
66668;BME280;57205;51.438;-2.006;2023-08-31T06:42:01;100290.69;;;12.41;100.00
66668;BME280;57205;51.438;-2.006;2023-08-31T06:44:27;100298.19;;;12.44;100.00
66668;BME280;57205;51.438;-2.006;2023-08-31T06:46:55;100300.31;;;12.47;100.00
66668;BME280;57205;51.438;-2.006;2023-08-31T06:49:21;100292.78;;;12.49;100.00
66668;BME280;57205;51.438;-2.006;2023-08-31T06:51:46;100303.19;;;12.56;100.00
66668;BME280;57205;51.438;-2.006;2023-08-31T06:54:12;100294.78;;;12.62;100.00
66668;BME280;57205;51.438;-2.006;2023-08-31T06:56:38;100300.91;;;12.68;100.00
66668;BME280;57205;51.438;-2.006;2023-08-31T06:59:03;100294.69;;;12.72;100.00
66668;BME280;57205;51.438;-2.006;2023-08-31T07:01:29;100298.09;;;12.78;100.00
66668;BME280;57205;51.438;-2.006;2023-08-31T07:03:55;100301.31;;;12.80;100.00
66668;BME280;57205;51.438;-2.006;2023-08-31T07:06:21;100301.53;;;12.84;100.00
66668;BME280;57205;51.438;-2.006;2023-08-31T07:08:46;100300.94;;;12.87;100.00
66668;BME280;57205;51.438;-2.006;2023-08-31T07:11:13;100298.78;;;12.89;100.00
66668;BME280;57205;51.438;-2.006;2023-08-31T07:13:39;100300.09;;;12.91;100.00
66668;BME280;57205;51.438;-2.006;2023-08-31T07:16:05;100298.72;;;12.94;100.00
66668;BME280;57205;51.438;-2.006;2023-08-31T07:18:31;100308.59;;;12.98;100.00
66668;BME280;57205;51.438;-2.006;2023-08-31T07:20:57;100306.44;;;13.00;100.00
66668;BME280;57205;51.438;-2.006;2023-08-31T07:23:22;100305.34;;;13.01;100.00
66668;BME280;57205;51.438;-2.006;2023-08-31T07:25:48;100300.72;;;13.07;100.00
66668;BME280;57205;51.438;-2.006;2023-08-31T07:28:14;100314.09;;;13.12;100.00
66668;BME280;57205;51.438;-2.006;2023-08-31T07:30:39;100305.25;;;13.11;100.00
66668;BME280;57205;51.438;-2.006;2023-08-31T07:33:07;100304.16;;;13.12;100.00
66668;BME280;57205;51.438;-2.006;2023-08-31T07:35:32;100300.91;;;13.15;100.00
66668;BME280;57205;51.438;-2.006;2023-08-31T07:37:58;100296.81;;;13.18;100.00
66668;BME280;57205;51.438;-2.006;2023-08-31T07:40:25;100304.03;;;13.22;100.00
66668;BME280;57205;51.438;-2.006;2023-08-31T07:42:51;100295.09;;;13.27;100.00
66668;BME280;57205;51.438;-2.006;2023-08-31T07:45:17;100293.41;;;13.31;100.00
66668;BME280;57205;51.438;-2.006;2023-08-31T07:47:42;100295.25;;;13.35;100.00
66668;BME280;57205;51.438;-2.006;2023-08-31T07:50:08;100295.47;;;13.39;100.00
66668;BME280;57205;51.438;-2.006;2023-08-31T07:52:36;100285.03;;;13.37;100.00
66668;BME280;57205;51.438;-2.006;2023-08-31T07:55:03;100273.97;;;13.39;100.00
66668;BME280;57205;51.438;-2.006;2023-08-31T07:57:29;100276.38;;;13.40;100.00
66668;BME280;57205;51.438;-2.006;2023-08-31T07:59:55;100279.84;;;13.41;100.00
66668;BME280;57205;51.438;-2.006;2023-08-31T08:02:20;100274.47;;;13.41;100.00
66668;BME280;57205;51.438;-2.006;2023-08-31T08:04:47;100275.78;;;13.43;100.00
66668;BME280;57205;51.438;-2.006;2023-08-31T08:07:12;100276.78;;;13.47;100.00
66668;BME280;57205;51.438;-2.006;2023-08-31T08:09:38;100273.03;;;13.48;100.00
66668;BME280;57205;51.438;-2.006;2023-08-31T08:12:03;100275.22;;;13.46;100.00
66668;BME280;57205;51.438;-2.006;2023-08-31T08:14:29;100266.34;;;13.46;100.00
66668;BME280;57205;51.438;-2.006;2023-08-31T08:16:54;100277.59;;;13.48;100.00
66668;BME280;57205;51.438;-2.006;2023-08-31T08:19:24;100262.06;;;13.45;100.00
66668;BME280;57205;51.438;-2.006;2023-08-31T08:21:50;100271.50;;;13.42;100.00
66668;BME280;57205;51.438;-2.006;2023-08-31T08:24:16;100270.69;;;13.42;100.00
66668;BME280;57205;51.438;-2.006;2023-08-31T08:26:41;100269.91;;;13.41;100.00
66668;BME280;57205;51.438;-2.006;2023-08-31T08:29:07;100269.91;;;13.41;100.00
66668;BME280;57205;51.438;-2.006;2023-08-31T08:31:32;100278.41;;;13.48;100.00
66668;BME280;57205;51.438;-2.006;2023-08-31T08:33:58;100269.75;;;13.51;100.00
66668;BME280;57205;51.438;-2.006;2023-08-31T08:36:23;100274.81;;;13.53;100.00
66668;BME280;57205;51.438;-2.006;2023-08-31T08:38:48;100272.94;;;13.53;100.00
66668;BME280;57205;51.438;-2.006;2023-08-31T08:41:14;100269.75;;;13.51;100.00
66668;BME280;57205;51.438;-2.006;2023-08-31T08:43:46;100268.06;;;13.55;100.00
66668;BME280;57205;51.438;-2.006;2023-08-31T08:46:13;100262.63;;;13.60;100.00
66668;BME280;57205;51.438;-2.006;2023-08-31T08:48:40;100268.66;;;13.71;100.00
66668;BME280;57205;51.438;-2.006;2023-08-31T08:51:07;100270.34;;;13.81;100.00
66668;BME280;57205;51.438;-2.006;2023-08-31T08:53:33;100269.59;;;13.94;100.00
66668;BME280;57205;51.438;-2.006;2023-08-31T08:55:59;100272.50;;;13.97;100.00
66668;BME280;57205;51.438;-2.006;2023-08-31T08:58:25;100258.91;;;14.07;100.00
66668;BME280;57205;51.438;-2.006;2023-08-31T09:00:51;100266.28;;;14.15;100.00
66668;BME280;57205;51.438;-2.006;2023-08-31T09:03:17;100264.50;;;14.24;100.00
66668;BME280;57205;51.438;-2.006;2023-08-31T09:05:42;100261.75;;;14.29;100.00
66668;BME280;57205;51.438;-2.006;2023-08-31T09:08:09;100259.56;;;14.31;100.00
66668;BME280;57205;51.438;-2.006;2023-08-31T09:10:42;100263.78;;;14.37;100.00
66668;BME280;57205;51.438;-2.006;2023-08-31T09:13:13;100261.16;;;14.46;100.00
66668;BME280;57205;51.438;-2.006;2023-08-31T09:15:40;100259.09;;;14.56;100.00
66668;BME280;57205;51.438;-2.006;2023-08-31T09:18:07;100264.16;;;14.72;100.00
66668;BME280;57205;51.438;-2.006;2023-08-31T09:20:45;100260.47;;;14.81;100.00
66668;BME280;57205;51.438;-2.006;2023-08-31T09:23:12;100260.78;;;14.80;100.00
66668;BME280;57205;51.438;-2.006;2023-08-31T09:25:42;100254.38;;;14.89;100.00
66668;BME280;57205;51.438;-2.006;2023-08-31T09:28:09;100256.59;;;14.87;100.00
66668;BME280;57205;51.438;-2.006;2023-08-31T09:30:38;100250.81;;;14.94;100.00
66668;BME280;57205;51.438;-2.006;2023-08-31T09:33:04;100241.91;;;14.93;100.00
66668;BME280;57205;51.438;-2.006;2023-08-31T09:35:30;100239.81;;;14.90;100.00
66668;BME280;57205;51.438;-2.006;2023-08-31T09:37:57;100241.13;;;14.93;100.00
66668;BME280;57205;51.438;-2.006;2023-08-31T09:40:23;100249.00;;;15.03;100.00
66668;BME280;57205;51.438;-2.006;2023-08-31T09:42:51;100245.75;;;15.14;100.00
66668;BME280;57205;51.438;-2.006;2023-08-31T09:45:18;100243.66;;;15.25;100.00
66668;BME280;57205;51.438;-2.006;2023-08-31T09:47:50;100235.94;;;15.32;100.00
66668;BME280;57205;51.438;-2.006;2023-08-31T09:50:16;100237.91;;;15.40;100.00
66668;BME280;57205;51.438;-2.006;2023-08-31T09:52:42;100239.41;;;15.46;100.00
66668;BME280;57205;51.438;-2.006;2023-08-31T09:55:11;100232.75;;;15.43;100.00
66668;BME280;57205;51.438;-2.006;2023-08-31T09:57:37;100235.13;;;15.45;100.00
66668;BME280;57205;51.438;-2.006;2023-08-31T10:00:04;100234.91;;;15.55;100.00
66668;BME280;57205;51.438;-2.006;2023-08-31T10:02:30;100229.38;;;15.60;100.00
66668;BME280;57205;51.438;-2.006;2023-08-31T10:04:58;100237.09;;;15.53;100.00
66668;BME280;57205;51.438;-2.006;2023-08-31T10:07:24;100235.09;;;15.58;100.00
66668;BME280;57205;51.438;-2.006;2023-08-31T10:09:51;100228.63;;;15.46;100.00
66668;BME280;57205;51.438;-2.006;2023-08-31T10:12:17;100224.72;;;15.52;100.00
66668;BME280;57205;51.438;-2.006;2023-08-31T10:14:44;100230.09;;;15.52;100.00
66668;BME280;57205;51.438;-2.006;2023-08-31T10:17:12;100226.84;;;15.41;100.00
66668;BME280;57205;51.438;-2.006;2023-08-31T10:19:39;100227.53;;;15.33;100.00
66668;BME280;57205;51.438;-2.006;2023-08-31T10:22:05;100214.38;;;15.32;100.00
66668;BME280;57205;51.438;-2.006;2023-08-31T10:24:56;100220.66;;;15.41;100.00
66668;BME280;57205;51.438;-2.006;2023-08-31T10:27:21;100211.97;;;15.44;100.00
66668;BME280;57205;51.438;-2.006;2023-08-31T10:29:47;100209.94;;;15.49;100.00
66668;BME280;57205;51.438;-2.006;2023-08-31T10:32:17;100212.94;;;15.48;100.00
66668;BME280;57205;51.438;-2.006;2023-08-31T10:34:43;100206.28;;;15.45;100.00
66668;BME280;57205;51.438;-2.006;2023-08-31T10:37:22;100216.13;;;15.50;100.00
66668;BME280;57205;51.438;-2.006;2023-08-31T10:39:48;100214.09;;;15.55;100.00
66668;BME280;57205;51.438;-2.006;2023-08-31T10:42:13;100207.94;;;15.55;100.00
66668;BME280;57205;51.438;-2.006;2023-08-31T10:44:41;100203.66;;;15.62;100.00
66668;BME280;57205;51.438;-2.006;2023-08-31T10:47:08;100208.59;;;15.60;100.00
66668;BME280;57205;51.438;-2.006;2023-08-31T10:49:33;100203.13;;;15.52;100.00
66668;BME280;57205;51.438;-2.006;2023-08-31T10:52:19;100206.66;;;15.39;100.00
66668;BME280;57205;51.438;-2.006;2023-08-31T10:54:46;100204.78;;;15.26;100.00
66668;BME280;57205;51.438;-2.006;2023-08-31T10:57:12;100201.25;;;15.17;100.00
66668;BME280;57205;51.438;-2.006;2023-08-31T10:59:48;100205.81;;;15.16;100.00
66668;BME280;57205;51.438;-2.006;2023-08-31T11:05:14;100204.31;;;15.24;100.00
66668;BME280;57205;51.438;-2.006;2023-08-31T11:07:41;100201.69;;;15.32;100.00
66668;BME280;57205;51.438;-2.006;2023-08-31T11:10:18;100187.41;;;15.32;100.00
66668;BME280;57205;51.438;-2.006;2023-08-31T11:12:46;100191.09;;;15.36;100.00
66668;BME280;57205;51.438;-2.006;2023-08-31T11:15:22;100187.41;;;15.45;100.00
66668;BME280;57205;51.438;-2.006;2023-08-31T11:17:52;100196.03;;;15.56;100.00
66668;BME280;57205;51.438;-2.006;2023-08-31T11:20:18;100184.13;;;15.57;100.00
66668;BME280;57205;51.438;-2.006;2023-08-31T11:22:50;100185.38;;;15.51;100.00
66668;BME280;57205;51.438;-2.006;2023-08-31T11:25:17;100191.13;;;15.58;100.00
66668;BME280;57205;51.438;-2.006;2023-08-31T11:27:53;100188.06;;;15.51;100.00
66668;BME280;57205;51.438;-2.006;2023-08-31T11:30:18;100187.72;;;15.44;100.00
66668;BME280;57205;51.438;-2.006;2023-08-31T11:32:50;100180.09;;;15.46;100.00
66668;BME280;57205;51.438;-2.006;2023-08-31T11:35:17;100187.09;;;15.47;100.00
66668;BME280;57205;51.438;-2.006;2023-08-31T11:37:43;100181.25;;;15.53;100.00
66668;BME280;57205;51.438;-2.006;2023-08-31T11:40:10;100181.31;;;15.62;100.00
66668;BME280;57205;51.438;-2.006;2023-08-31T11:42:35;100187.06;;;15.69;100.00
66668;BME280;57205;51.438;-2.006;2023-08-31T11:45:01;100189.63;;;15.74;100.00
66668;BME280;57205;51.438;-2.006;2023-08-31T11:47:31;100190.31;;;15.80;100.00
66668;BME280;57205;51.438;-2.006;2023-08-31T11:49:57;100181.03;;;15.72;100.00
66668;BME280;57205;51.438;-2.006;2023-08-31T11:52:23;100188.91;;;15.82;100.00
66668;BME280;57205;51.438;-2.006;2023-08-31T11:54:52;100180.81;;;15.82;100.00
66668;BME280;57205;51.438;-2.006;2023-08-31T11:57:18;100180.00;;;15.82;100.00
66668;BME280;57205;51.438;-2.006;2023-08-31T11:59:43;100181.28;;;15.84;100.00
66668;BME280;57205;51.438;-2.006;2023-08-31T12:02:09;100179.00;;;15.78;100.00
66668;BME280;57205;51.438;-2.006;2023-08-31T12:04:44;100170.25;;;15.72;100.00
66668;BME280;57205;51.438;-2.006;2023-08-31T12:07:09;100167.44;;;15.77;100.00
66668;BME280;57205;51.438;-2.006;2023-08-31T12:09:35;100184.91;;;15.80;100.00
66668;BME280;57205;51.438;-2.006;2023-08-31T12:12:01;100185.72;;;15.80;100.00
66668;BME280;57205;51.438;-2.006;2023-08-31T12:14:27;100185.66;;;15.72;100.00
66668;BME280;57205;51.438;-2.006;2023-08-31T12:17:06;100180.16;;;15.85;100.00
66668;BME280;57205;51.438;-2.006;2023-08-31T12:19:33;100174.34;;;15.92;100.00
66668;BME280;57205;51.438;-2.006;2023-08-31T12:22:01;100174.94;;;16.11;100.00
66668;BME280;57205;51.438;-2.006;2023-08-31T12:24:27;100171.63;;;16.22;100.00
66668;BME280;57205;51.438;-2.006;2023-08-31T12:26:52;100180.19;;;16.24;100.00
66668;BME280;57205;51.438;-2.006;2023-08-31T12:29:22;100175.59;;;16.16;100.00
66668;BME280;57205;51.438;-2.006;2023-08-31T12:31:48;100175.34;;;16.04;100.00
66668;BME280;57205;51.438;-2.006;2023-08-31T12:34:15;100174.56;;;16.04;100.00
66668;BME280;57205;51.438;-2.006;2023-08-31T12:36:40;100167.25;;;16.04;100.00
66668;BME280;57205;51.438;-2.006;2023-08-31T12:39:09;100173.78;;;16.03;100.00